createdAt,value
2023-04-15T07:01:18.619Z,99379.53
2023-04-15T07:04:21.472Z,99382.66
2023-04-15T07:07:23.910Z,99377.56
2023-04-15T07:10:26.511Z,99374.59
2023-04-15T07:13:31.473Z,99379.31
2023-04-15T07:16:35.781Z,99374.13
2023-04-15T07:19:38.236Z,99375.03
2023-04-15T07:22:40.954Z,99376.16
2023-04-15T07:25:43.383Z,99370.03
2023-04-15T07:28:47.345Z,99376.16
2023-04-15T07:31:51.297Z,99374.81
2023-04-15T07:34:54.071Z,99377.66
2023-04-15T07:37:56.433Z,99382.41
2023-04-15T07:40:59.261Z,99374.28
2023-04-15T07:44:01.750Z,99375.16
2023-04-15T07:47:06.235Z,99379.56
2023-04-15T07:50:10.621Z,99389.34
2023-04-15T07:53:13.659Z,99386.91
2023-04-15T07:56:16.156Z,99392.63
2023-04-15T07:59:18.864Z,99391.22
2023-04-15T08:02:22.954Z,99395.53
2023-04-15T08:05:25.949Z,99394.78
2023-04-15T08:08:28.344Z,99392.56
2023-04-15T08:11:31.523Z,99384.31
2023-04-15T08:14:33.888Z,99385.53
2023-04-15T08:17:37.961Z,99395.94
2023-04-15T08:20:40.216Z,99383.34
2023-04-15T08:23:43.125Z,99389.53
2023-04-15T08:26:46.929Z,99397.84
2023-04-15T08:29:49.734Z,99391.25
2023-04-15T08:32:53.600Z,99397.41
2023-04-15T08:35:56.634Z,99400.28
2023-04-15T08:39:01.546Z,99400.53
2023-04-15T08:42:07.074Z,99403.44
2023-04-15T08:45:11.144Z,99405.41
2023-04-15T08:48:16.824Z,99405.13
2023-04-15T08:51:19.556Z,99410.59
2023-04-15T08:54:22.746Z,99412.25
2023-04-15T08:57:26.478Z,99412.00
2023-04-15T09:00:29.192Z,99415.16
2023-04-15T09:03:33.137Z,99413.75
2023-04-15T09:06:35.900Z,99417.41
2023-04-15T09:09:40.278Z,99422.03
2023-04-15T09:12:43.028Z,99423.84
2023-04-15T09:15:45.608Z,99418.91
2023-04-15T09:18:49.552Z,99419.84
2023-04-15T09:21:53.106Z,99417.97
2023-04-15T09:24:55.774Z,99411.06
2023-04-15T09:27:59.507Z,99412.59
2023-04-15T09:31:02.767Z,99410.41
2023-04-15T09:34:07.000Z,99426.16
2023-04-15T09:37:10.997Z,99422.97
2023-04-15T09:40:14.223Z,99420.88
2023-04-15T09:43:17.321Z,99414.87
2023-04-15T09:46:19.796Z,99415.91
2023-04-15T09:49:24.013Z,99413.81
2023-04-15T09:52:26.220Z,99413.53
2023-04-15T09:55:28.927Z,99406.25
2023-04-15T09:58:32.309Z,99411.19
2023-04-15T10:01:35.082Z,99413.03
2023-04-15T10:04:40.758Z,99417.56
